Time;durP1;ratioP1;P1;durP2;ratioP2;P2;SDS_P1;SDS_P2;PMS_P1;PMS_P2;Temp;Humidity;BMP_temperature;BMP_pressure;BME280_temperature;BME280_humidity;BME280_pressure;Samples;Min_cycle;Max_cycle;Signal;HPM_P1;HPM_P2
2021/08/08 00:16:42;;;;;;;11.45;4.68;;;;;;;;;;4508510;28;20082;-73
2021/08/08 00:19:08;;;;;;;10.35;5.20;;;;;;;;;;4204337;34;20208;-68
2021/08/08 00:21:34;;;;;;;11.07;4.43;;;;;;;;;;4203789;34;20481;-67
2021/08/08 00:24:00;;;;;;;7.90;4.65;;;;;;;;;;4204257;34;20639;-66
2021/08/08 00:26:26;;;;;;;7.22;4.70;;;;;;;;;;4202536;34;20126;-66
2021/08/08 00:28:52;;;;;;;10.50;4.70;;;;;;;;;;4203865;34;20648;-66
2021/08/08 00:31:22;;;;;;;6.25;4.20;;;;;;;;;;4202417;34;20212;-66
2021/08/08 00:33:50;;;;;;;6.05;4.68;;;;;;;;;;4204001;34;20124;-74
2021/08/08 00:36:16;;;;;;;9.93;4.80;;;;;;;;;;4204173;34;20105;-71
2021/08/08 00:38:42;;;;;;;13.62;5.07;;;;;;;;;;4204214;34;20121;-70
2021/08/08 00:41:07;;;;;;;9.15;5.70;;;;;;;;;;4204179;34;20120;-68
2021/08/08 00:43:33;;;;;;;10.68;4.95;;;;;;;;;;4204245;34;20148;-66
2021/08/08 00:45:59;;;;;;;6.95;4.72;;;;;;;;;;4204286;34;20137;-68
2021/08/08 00:48:25;;;;;;;7.43;4.80;;;;;;;;;;4202738;34;20141;-70
2021/08/08 00:50:51;;;;;;;11.85;5.00;;;;;;;;;;4205580;34;20758;-69
2021/08/08 00:53:18;;;;;;;8.93;5.03;;;;;;;;;;4206445;34;20125;-74
2021/08/08 00:55:43;;;;;;;8.00;5.00;;;;;;;;;;4204885;34;20505;-69
2021/08/08 00:58:09;;;;;;;9.20;4.37;;;;;;;;;;4205211;34;20422;-74
2021/08/08 01:00:36;;;;;;;7.80;5.45;;;;;;;;;;4206119;34;20113;-68
2021/08/08 01:03:03;;;;;;;6.47;4.53;;;;;;;;;;4193415;34;20196;-65
2021/08/08 01:05:31;;;;;;;9.77;4.93;;;;;;;;;;4204679;34;20287;-68
2021/08/08 01:08:01;;;;;;;7.15;4.80;;;;;;;;;;4204955;34;20218;-74
2021/08/08 01:10:27;;;;;;;9.82;5.15;;;;;;;;;;4204753;34;20536;-69
2021/08/08 01:12:55;;;;;;;8.38;5.18;;;;;;;;;;4206358;34;20130;-67
2021/08/08 01:15:22;;;;;;;10.70;5.32;;;;;;;;;;4193456;34;20212;-67
2021/08/08 01:17:48;;;;;;;10.15;5.20;;;;;;;;;;4205128;34;20151;-68
2021/08/08 01:20:14;;;;;;;7.80;4.62;;;;;;;;;;4204848;34;20137;-75
2021/08/08 01:22:52;;;;;;;8.93;5.03;;;;;;;;;;4205125;34;20205;-74
2021/08/08 01:25:18;;;;;;;8.38;5.03;;;;;;;;;;4204942;34;20126;-64
2021/08/08 01:27:44;;;;;;;8.65;5.10;;;;;;;;;;4204871;34;20118;-73
2021/08/08 01:30:10;;;;;;;8.75;5.00;;;;;;;;;;4193622;34;20196;-74
2021/08/08 01:32:36;;;;;;;10.80;5.37;;;;;;;;;;4205677;34;20318;-74
2021/08/08 01:35:03;;;;;;;8.32;4.68;;;;;;;;;;4193633;34;20453;-69
2021/08/08 01:37:29;;;;;;;9.60;5.18;;;;;;;;;;4205910;34;20122;-69
2021/08/08 01:39:59;;;;;;;9.40;4.85;;;;;;;;;;4204700;34;20113;-74
2021/08/08 01:42:24;;;;;;;7.22;4.25;;;;;;;;;;4204643;34;20108;-67
2021/08/08 01:44:52;;;;;;;7.97;4.40;;;;;;;;;;4204604;34;20204;-67
2021/08/08 01:47:20;;;;;;;7.32;4.95;;;;;;;;;;4206001;34;20214;-72
2021/08/08 01:49:46;;;;;;;5.70;3.97;;;;;;;;;;4193605;34;20228;-64
2021/08/08 01:52:12;;;;;;;11.00;5.57;;;;;;;;;;4192829;34;20121;-68
2021/08/08 01:54:38;;;;;;;13.70;4.57;;;;;;;;;;4193092;34;20467;-73
2021/08/08 01:57:04;;;;;;;9.30;4.47;;;;;;;;;;4204803;34;20122;-68
2021/08/08 01:59:30;;;;;;;13.23;4.32;;;;;;;;;;4205797;34;20113;-68
2021/08/08 02:01:56;;;;;;;12.75;5.70;;;;;;;;;;4205774;34;20108;-74
2021/08/08 02:04:26;;;;;;;9.60;5.30;;;;;;;;;;4204502;34;20177;-64
2021/08/08 02:06:52;;;;;;;12.40;4.68;;;;;;;;;;4205405;34;20590;-70
2021/08/08 02:09:19;;;;;;;10.70;4.55;;;;;;;;;;4205795;34;20102;-65
2021/08/08 02:11:45;;;;;;;6.45;4.70;;;;;;;;;;4205797;34;20137;-69
2021/08/08 02:14:14;;;;;;;9.82;5.20;;;;;;;;;;4205612;34;20106;-68
2021/08/08 02:16:40;;;;;;;9.35;4.35;;;;;;;;;;4213085;33;20222;-65
2021/08/08 02:19:06;;;;;;;10.93;5.25;;;;;;;;;;4219561;34;20563;-70
2021/08/08 02:21:32;;;;;;;10.70;4.87;;;;;;;;;;4219561;34;20086;-69
2021/08/08 02:23:59;;;;;;;7.07;4.80;;;;;;;;;;4219449;34;20561;-74
2021/08/08 02:26:25;;;;;;;9.40;5.10;;;;;;;;;;4206585;34;20197;-70
2021/08/08 02:28:51;;;;;;;7.72;4.82;;;;;;;;;;4206579;34;20109;-75
2021/08/08 02:31:20;;;;;;;7.82;4.82;;;;;;;;;;4219744;34;20141;-69
2021/08/08 02:33:46;;;;;;;9.65;5.75;;;;;;;;;;4206836;34;20120;-75
2021/08/08 02:36:12;;;;;;;9.63;5.45;;;;;;;;;;4206169;34;20535;-69
2021/08/08 02:38:38;;;;;;;8.15;4.70;;;;;;;;;;4206337;34;20472;-70
2021/08/08 02:41:04;;;;;;;7.55;4.75;;;;;;;;;;4206129;34;20202;-70
2021/08/08 02:43:30;;;;;;;9.20;5.03;;;;;;;;;;4219292;34;20239;-68
2021/08/08 02:45:56;;;;;;;7.37;5.40;;;;;;;;;;4206304;34;20434;-66
2021/08/08 02:48:22;;;;;;;9.65;4.97;;;;;;;;;;4206351;34;20128;-70
2021/08/08 02:50:48;;;;;;;11.85;4.85;;;;;;;;;;4219161;34;20127;-70
2021/08/08 02:53:13;;;;;;;11.48;4.97;;;;;;;;;;4219548;34;20580;-66
2021/08/08 02:55:39;;;;;;;12.13;4.87;;;;;;;;;;4218931;34;20476;-69
2021/08/08 02:58:05;;;;;;;11.27;4.97;;;;;;;;;;4219003;34;20224;-69
2021/08/08 03:00:31;;;;;;;10.88;5.15;;;;;;;;;;4206148;34;20132;-66
2021/08/08 03:02:57;;;;;;;15.55;5.68;;;;;;;;;;4206405;34;20248;-68
2021/08/08 03:05:23;;;;;;;12.48;4.32;;;;;;;;;;4219278;34;20182;-68
2021/08/08 03:07:49;;;;;;;8.57;4.45;;;;;;;;;;4218985;34;20144;-65
2021/08/08 03:10:15;;;;;;;10.63;5.10;;;;;;;;;;4218841;34;20136;-68
2021/08/08 03:12:41;;;;;;;5.60;4.50;;;;;;;;;;4218382;34;20101;-68
2021/08/08 03:15:07;;;;;;;6.37;4.35;;;;;;;;;;4218871;34;20240;-69
2021/08/08 03:17:33;;;;;;;8.02;4.32;;;;;;;;;;4205927;34;20121;-64
2021/08/08 03:19:59;;;;;;;11.80;4.40;;;;;;;;;;4219028;34;20110;-64
2021/08/08 03:22:25;;;;;;;8.55;4.20;;;;;;;;;;4218732;34;20156;-67
2021/08/08 03:24:51;;;;;;;10.98;4.22;;;;;;;;;;4218923;34;20124;-64
2021/08/08 03:27:17;;;;;;;7.37;4.22;;;;;;;;;;4218597;34;20117;-67
2021/08/08 03:29:43;;;;;;;9.20;4.55;;;;;;;;;;4218392;34;20120;-67
2021/08/08 03:32:09;;;;;;;7.07;4.60;;;;;;;;;;4218534;34;20098;-74
2021/08/08 03:34:35;;;;;;;8.85;4.72;;;;;;;;;;4205716;34;20151;-68
2021/08/08 03:37:01;;;;;;;8.85;4.43;;;;;;;;;;4205495;34;20180;-68
2021/08/08 03:39:27;;;;;;;12.40;4.22;;;;;;;;;;4218366;34;20113;-73
2021/08/08 03:41:53;;;;;;;5.50;3.72;;;;;;;;;;4218491;34;20101;-65
2021/08/08 03:44:19;;;;;;;9.85;4.28;;;;;;;;;;4218975;34;20209;-68
2021/08/08 03:46:45;;;;;;;11.32;4.32;;;;;;;;;;4205437;34;20534;-68
2021/08/08 03:49:12;;;;;;;5.55;3.67;;;;;;;;;;4205217;34;20113;-68
2021/08/08 03:51:38;;;;;;;7.07;3.67;;;;;;;;;;4218396;34;20137;-67
2021/08/08 03:54:04;;;;;;;6.93;3.78;;;;;;;;;;4218472;34;20129;-68
2021/08/08 03:56:30;;;;;;;7.07;3.72;;;;;;;;;;4218038;34;20141;-64
2021/08/08 03:58:56;;;;;;;7.12;3.83;;;;;;;;;;4205608;34;20217;-68
2021/08/08 04:01:22;;;;;;;6.45;3.40;;;;;;;;;;4218087;34;20132;-74
2021/08/08 04:03:56;;;;;;;6.18;3.87;;;;;;;;;;4218482;34;20129;-67
2021/08/08 04:06:22;;;;;;;4.32;3.87;;;;;;;;;;4218697;34;20145;-69
2021/08/08 04:08:48;;;;;;;8.30;3.40;;;;;;;;;;4218463;34;20124;-69
2021/08/08 04:11:14;;;;;;;11.85;3.28;;;;;;;;;;4218557;34;20204;-69
2021/08/08 04:13:39;;;;;;;3.62;3.10;;;;;;;;;;4218362;34;20550;-69
2021/08/08 04:16:05;;;;;;;4.85;3.30;;;;;;;;;;4218112;34;20278;-70
2021/08/08 04:18:31;;;;;;;5.60;3.28;;;;;;;;;;4218157;34;20100;-68
2021/08/08 04:20:57;;;;;;;4.62;3.10;;;;;;;;;;4218530;34;20132;-68
2021/08/08 04:23:23;;;;;;;13.23;3.33;;;;;;;;;;4218682;34;20225;-74
2021/08/08 04:25:49;;;;;;;4.95;3.00;;;;;;;;;;4220540;34;20136;-75
2021/08/08 04:28:15;;;;;;;5.78;3.00;;;;;;;;;;4207652;34;20522;-68
2021/08/08 04:30:41;;;;;;;6.00;3.53;;;;;;;;;;4220310;34;20235;-75
2021/08/08 04:33:07;;;;;;;9.98;3.15;;;;;;;;;;4207683;34;20114;-68
2021/08/08 04:35:34;;;;;;;6.55;3.20;;;;;;;;;;4220382;34;20160;-73
2021/08/08 04:38:00;;;;;;;7.80;3.20;;;;;;;;;;4220419;34;20215;-69
2021/08/08 04:40:26;;;;;;;3.30;2.85;;;;;;;;;;4220126;34;20132;-69
2021/08/08 04:42:52;;;;;;;4.07;3.00;;;;;;;;;;4220252;34;20244;-65
2021/08/08 04:45:22;;;;;;;4.28;3.03;;;;;;;;;;4219787;34;20121;-67
2021/08/08 04:47:48;;;;;;;6.55;2.87;;;;;;;;;;4206632;34;20195;-67
2021/08/08 04:50:14;;;;;;;12.98;3.20;;;;;;;;;;4219327;33;20121;-67
2021/08/08 04:52:40;;;;;;;6.70;3.70;;;;;;;;;;4219962;34;20128;-67
2021/08/08 04:55:07;;;;;;;4.85;3.35;;;;;;;;;;4219739;34;20124;-68
2021/08/08 04:57:33;;;;;;;4.82;2.60;;;;;;;;;;4219809;33;20205;-64
2021/08/08 04:59:59;;;;;;;7.18;2.85;;;;;;;;;;4219714;34;20128;-64
2021/08/08 05:02:25;;;;;;;8.82;3.08;;;;;;;;;;4219599;34;20109;-64
2021/08/08 05:04:51;;;;;;;3.90;2.60;;;;;;;;;;4207091;34;20149;-67
2021/08/08 05:07:17;;;;;;;5.20;2.60;;;;;;;;;;4219573;34;20136;-70
2021/08/08 05:09:43;;;;;;;4.15;2.60;;;;;;;;;;4219759;33;20132;-67
2021/08/08 05:12:09;;;;;;;4.20;2.15;;;;;;;;;;4220146;34;20521;-74
2021/08/08 05:14:37;;;;;;;3.22;2.53;;;;;;;;;;4219956;33;20865;-73
2021/08/08 05:17:03;;;;;;;4.32;2.78;;;;;;;;;;4202192;34;20110;-74
2021/08/08 05:19:29;;;;;;;7.87;4.30;;;;;;;;;;4202143;34;20106;-74
2021/08/08 05:21:55;;;;;;;3.97;2.28;;;;;;;;;;4201854;34;20202;-67
2021/08/08 05:24:21;;;;;;;4.50;2.40;;;;;;;;;;4191747;34;20447;-68
2021/08/08 05:27:13;;;;;;;7.53;2.22;;;;;;;;;;4191728;34;20158;-69
2021/08/08 05:29:40;;;;;;;3.37;2.28;;;;;;;;;;4200547;34;20137;-75
2021/08/08 05:32:07;;;;;;;4.37;2.40;;;;;;;;;;4202204;34;20593;-72
2021/08/08 05:34:33;;;;;;;6.50;2.30;;;;;;;;;;4191786;34;20534;-67
2021/08/08 05:36:58;;;;;;;3.92;2.47;;;;;;;;;;4191490;34;20101;-72
2021/08/08 05:39:24;;;;;;;3.75;2.17;;;;;;;;;;4201949;34;20129;-71
2021/08/08 05:41:50;;;;;;;4.65;2.30;;;;;;;;;;4191783;34;20201;-72
2021/08/08 05:44:16;;;;;;;3.08;2.17;;;;;;;;;;4201777;34;20114;-67
2021/08/08 05:46:42;;;;;;;3.85;1.98;;;;;;;;;;4201713;34;20205;-69
2021/08/08 05:49:09;;;;;;;3.35;2.37;;;;;;;;;;4192098;34;20114;-70
2021/08/08 05:51:40;;;;;;;2.12;1.80;;;;;;;;;;4192043;34;20113;-69
2021/08/08 05:54:06;;;;;;;5.28;1.95;;;;;;;;;;4192124;34;20510;-66
2021/08/08 05:56:32;;;;;;;4.05;1.73;;;;;;;;;;4191989;34;20141;-70
2021/08/08 05:58:58;;;;;;;4.03;1.83;;;;;;;;;;4191764;34;20597;-69
2021/08/08 06:01:24;;;;;;;2.17;1.70;;;;;;;;;;4191600;34;20516;-70
2021/08/08 06:03:50;;;;;;;2.05;1.70;;;;;;;;;;4191567;34;20150;-70
2021/08/08 06:06:16;;;;;;;2.40;1.80;;;;;;;;;;4191553;34;20117;-69
2021/08/08 06:08:42;;;;;;;4.40;1.80;;;;;;;;;;4191439;34;20117;-70
2021/08/08 06:11:09;;;;;;;4.95;1.90;;;;;;;;;;4190098;34;20514;-66
2021/08/08 06:13:35;;;;;;;6.80;1.77;;;;;;;;;;4189782;34;20118;-69
2021/08/08 06:16:02;;;;;;;2.03;1.90;;;;;;;;;;4197368;33;20116;-66
2021/08/08 06:18:28;;;;;;;4.32;1.77;;;;;;;;;;4218035;33;20184;-67
2021/08/08 06:20:55;;;;;;;2.10;1.58;;;;;;;;;;4218181;33;20523;-66
2021/08/08 06:23:21;;;;;;;2.40;1.83;;;;;;;;;;4219114;33;20110;-69
2021/08/08 06:25:46;;;;;;;1.70;1.60;;;;;;;;;;4218977;34;20135;-74
2021/08/08 06:28:12;;;;;;;1.75;1.45;;;;;;;;;;4219420;34;20136;-75
2021/08/08 06:30:38;;;;;;;2.97;1.58;;;;;;;;;;4219358;34;20125;-75
2021/08/08 06:33:04;;;;;;;2.30;1.95;;;;;;;;;;4219531;34;20129;-68
2021/08/08 06:35:30;;;;;;;3.03;1.50;;;;;;;;;;4219217;34;20477;-68
2021/08/08 06:37:56;;;;;;;2.85;1.83;;;;;;;;;;4219397;34;20120;-65
2021/08/08 06:40:22;;;;;;;4.80;2.08;;;;;;;;;;4219526;34;20193;-68
2021/08/08 06:42:48;;;;;;;2.92;1.75;;;;;;;;;;4219247;34;20145;-67
2021/08/08 06:45:14;;;;;;;2.75;1.60;;;;;;;;;;4219590;34;20121;-67
2021/08/08 06:47:40;;;;;;;2.22;1.70;;;;;;;;;;4218360;34;20121;-75
2021/08/08 06:50:06;;;;;;;6.12;2.05;;;;;;;;;;4219537;34;20132;-68
2021/08/08 06:52:32;;;;;;;1.70;1.60;;;;;;;;;;4219173;34;20208;-74
2021/08/08 06:54:58;;;;;;;1.50;1.33;;;;;;;;;;4206486;34;20550;-75
2021/08/08 06:57:25;;;;;;;2.35;1.62;;;;;;;;;;4219271;34;20627;-72
2021/08/08 06:59:51;;;;;;;6.05;2.10;;;;;;;;;;4218349;34;20109;-75
2021/08/08 07:02:17;;;;;;;2.70;1.60;;;;;;;;;;4218700;34;20113;-72
2021/08/08 07:04:43;;;;;;;3.83;2.67;;;;;;;;;;4218743;34;20125;-71
2021/08/08 07:07:08;;;;;;;2.67;1.67;;;;;;;;;;4218807;34;20144;-69
2021/08/08 07:09:34;;;;;;;2.05;1.80;;;;;;;;;;4218492;34;20125;-64
2021/08/08 07:12:00;;;;;;;1.83;1.60;;;;;;;;;;4218357;34;20118;-69
2021/08/08 07:14:28;;;;;;;3.87;1.70;;;;;;;;;;4218732;33;20630;-66
2021/08/08 07:18:16;;;;;;;10.30;2.10;;;;;;;;;;3834637;37;20435;-74
2021/08/08 07:20:42;;;;;;;5.78;1.92;;;;;;;;;;4404680;32;20426;-70
2021/08/08 07:23:08;;;;;;;2.08;1.83;;;;;;;;;;4404959;32;20547;-67
2021/08/08 07:25:34;;;;;;;2.65;1.70;;;;;;;;;;4403389;32;20113;-65
2021/08/08 07:28:00;;;;;;;2.12;1.80;;;;;;;;;;4405366;32;20619;-74
2021/08/08 07:30:26;;;;;;;2.35;1.83;;;;;;;;;;4404976;32;20462;-75
2021/08/08 07:32:52;;;;;;;3.75;1.92;;;;;;;;;;4405371;32;20109;-73
2021/08/08 07:35:18;;;;;;;5.80;1.90;;;;;;;;;;4403567;32;20132;-71
2021/08/08 07:37:44;;;;;;;2.87;1.90;;;;;;;;;;4404893;32;20171;-67
2021/08/08 07:40:11;;;;;;;2.95;1.77;;;;;;;;;;4405551;32;20266;-79
2021/08/08 07:42:38;;;;;;;2.35;1.75;;;;;;;;;;4405077;32;20494;-67
2021/08/08 07:45:05;;;;;;;2.47;1.75;;;;;;;;;;4403453;32;20141;-67
2021/08/08 07:47:31;;;;;;;3.28;1.87;;;;;;;;;;4404855;32;20128;-68
2021/08/08 07:49:57;;;;;;;3.25;1.95;;;;;;;;;;4403287;32;20278;-68
2021/08/08 07:52:23;;;;;;;2.00;1.80;;;;;;;;;;4404416;32;20519;-68
2021/08/08 07:54:49;;;;;;;2.17;1.80;;;;;;;;;;4404389;32;20125;-70
2021/08/08 07:57:15;;;;;;;2.90;1.80;;;;;;;;;;4404263;32;20439;-71
2021/08/08 08:00:06;;;;;;;3.37;1.65;;;;;;;;;;4404577;32;20100;-68
2021/08/08 08:02:44;;;;;;;6.95;2.20;;;;;;;;;;4402609;32;20174;-70
2021/08/08 08:05:11;;;;;;;3.10;2.15;;;;;;;;;;4403761;32;20094;-68
2021/08/08 08:07:37;;;;;;;2.20;1.67;;;;;;;;;;4404585;32;20113;-66
2021/08/08 08:10:04;;;;;;;4.90;2.25;;;;;;;;;;4404303;32;20164;-66
2021/08/08 08:12:31;;;;;;;4.57;1.62;;;;;;;;;;4404194;32;20263;-70
2021/08/08 08:14:57;;;;;;;3.30;2.12;;;;;;;;;;4404439;32;20140;-67
2021/08/08 08:17:23;;;;;;;2.22;2.00;;;;;;;;;;4402131;32;20302;-67
2021/08/08 08:19:48;;;;;;;3.17;2.08;;;;;;;;;;4403148;32;20800;-70
2021/08/08 08:22:16;;;;;;;3.37;2.15;;;;;;;;;;4404834;32;20109;-68
2021/08/08 08:24:43;;;;;;;6.15;2.17;;;;;;;;;;4404296;32;20113;-68
2021/08/08 08:27:09;;;;;;;4.68;2.00;;;;;;;;;;4404514;32;20105;-68
2021/08/08 08:29:35;;;;;;;3.05;2.00;;;;;;;;;;4394511;32;20213;-70
2021/08/08 08:32:01;;;;;;;3.58;1.77;;;;;;;;;;4394540;32;20110;-67
2021/08/08 08:34:27;;;;;;;3.95;1.98;;;;;;;;;;4392867;32;20125;-69
2021/08/08 08:36:53;;;;;;;2.53;1.92;;;;;;;;;;4394286;32;20583;-66
2021/08/08 08:39:19;;;;;;;2.30;2.10;;;;;;;;;;4387211;32;20626;-68
2021/08/08 08:41:44;;;;;;;4.82;2.20;;;;;;;;;;4377157;32;20134;-67
2021/08/08 08:44:12;;;;;;;3.20;1.95;;;;;;;;;;4379936;32;20098;-68
2021/08/08 08:46:38;;;;;;;6.12;2.67;;;;;;;;;;4368978;32;20177;-74
2021/08/08 08:49:04;;;;;;;4.10;2.00;;;;;;;;;;4377568;32;20260;-66
2021/08/08 08:51:36;;;;;;;3.70;2.40;;;;;;;;;;4378315;32;20125;-66
2021/08/08 08:54:02;;;;;;;10.50;3.40;;;;;;;;;;4377308;32;20090;-67
2021/08/08 08:56:30;;;;;;;4.37;2.75;;;;;;;;;;4364593;32;20572;-65
2021/08/08 08:58:57;;;;;;;5.47;2.30;;;;;;;;;;4377271;32;20290;-68
2021/08/08 09:01:23;;;;;;;5.50;3.12;;;;;;;;;;4374185;32;20440;-66
2021/08/08 09:03:49;;;;;;;8.18;4.10;;;;;;;;;;4392126;32;20121;-66
2021/08/08 09:06:15;;;;;;;6.20;4.75;;;;;;;;;;4379549;32;20113;-69
2021/08/08 09:08:42;;;;;;;6.70;3.37;;;;;;;;;;4379590;32;20124;-69
2021/08/08 09:11:08;;;;;;;5.80;2.95;;;;;;;;;;4393325;32;20584;-74
2021/08/08 09:13:51;;;;;;;8.93;2.75;;;;;;;;;;4394275;32;20127;-73
2021/08/08 09:16:17;;;;;;;5.47;2.85;;;;;;;;;;4396767;32;20109;-75
2021/08/08 09:18:56;;;;;;;8.57;2.80;;;;;;;;;;4397408;32;20116;-74
2021/08/08 09:21:22;;;;;;;5.62;3.05;;;;;;;;;;4393385;32;20125;-75
2021/08/08 09:23:53;;;;;;;3.50;2.45;;;;;;;;;;4393780;32;20186;-75
2021/08/08 09:26:34;;;;;;;8.57;4.12;;;;;;;;;;4380275;32;20547;-75
2021/08/08 09:29:10;;;;;;;9.80;2.90;;;;;;;;;;4393839;32;20121;-68
2021/08/08 09:31:46;;;;;;;7.70;3.85;;;;;;;;;;4367875;32;20106;-67
2021/08/08 09:34:24;;;;;;;15.02;4.40;;;;;;;;;;4379336;32;20117;-66
2021/08/08 09:36:52;;;;;;;4.65;3.00;;;;;;;;;;4393000;32;20093;-65
2021/08/08 09:39:34;;;;;;;3.80;2.67;;;;;;;;;;4392743;32;20605;-65
2021/08/08 09:42:16;;;;;;;7.47;3.37;;;;;;;;;;4393336;32;20199;-65
2021/08/08 09:45:01;;;;;;;5.97;3.40;;;;;;;;;;4397095;32;20097;-66
2021/08/08 09:47:42;;;;;;;5.65;3.80;;;;;;;;;;4381820;32;20108;-67
2021/08/08 09:50:19;;;;;;;7.62;4.28;;;;;;;;;;4394529;32;20124;-67
2021/08/08 09:52:55;;;;;;;12.07;4.35;;;;;;;;;;4408328;32;20109;-67
2021/08/08 09:55:30;;;;;;;7.62;3.20;;;;;;;;;;4394395;32;20448;-65
2021/08/08 09:57:58;;;;;;;9.93;3.62;;;;;;;;;;4408311;32;20105;-66
2021/08/08 10:00:25;;;;;;;5.78;2.95;;;;;;;;;;4408139;32;20209;-66
2021/08/08 10:02:51;;;;;;;7.85;3.40;;;;;;;;;;4408045;32;20092;-67
2021/08/08 10:05:17;;;;;;;7.68;3.35;;;;;;;;;;4394164;32;20105;-66
2021/08/08 10:07:43;;;;;;;8.10;2.97;;;;;;;;;;4408503;32;20212;-66
2021/08/08 10:10:10;;;;;;;4.25;3.08;;;;;;;;;;4381561;32;20225;-66
2021/08/08 10:12:57;;;;;;;8.73;3.28;;;;;;;;;;4393996;32;20527;-65
2021/08/08 10:15:23;;;;;;;8.02;3.05;;;;;;;;;;4395614;32;20113;-66
2021/08/08 10:17:49;;;;;;;3.55;2.70;;;;;;;;;;4391157;32;20117;-65
2021/08/08 10:20:15;;;;;;;5.03;2.72;;;;;;;;;;4378358;32;20488;-66
2021/08/08 10:22:42;;;;;;;5.90;3.10;;;;;;;;;;4376471;32;20233;-64
2021/08/08 10:25:09;;;;;;;4.12;3.37;;;;;;;;;;4376355;32;20090;-66
2021/08/08 10:27:35;;;;;;;5.70;3.33;;;;;;;;;;4377492;32;20624;-66
2021/08/08 10:30:02;;;;;;;6.82;3.37;;;;;;;;;;4364208;32;20140;-72
2021/08/08 10:32:28;;;;;;;8.85;3.45;;;;;;;;;;4363748;32;20194;-73
2021/08/08 10:34:55;;;;;;;6.32;3.05;;;;;;;;;;4364056;32;20133;-73
2021/08/08 10:37:23;;;;;;;6.65;3.22;;;;;;;;;;4377744;32;20094;-71
2021/08/08 10:39:50;;;;;;;6.47;3.10;;;;;;;;;;4376312;32;20098;-73
2021/08/08 10:42:16;;;;;;;5.85;2.95;;;;;;;;;;4377797;32;20356;-72
2021/08/08 10:44:47;;;;;;;7.60;3.22;;;;;;;;;;4376194;32;20125;-72
2021/08/08 10:47:24;;;;;;;5.78;3.17;;;;;;;;;;4391996;32;20182;-72
2021/08/08 10:49:50;;;;;;;7.70;2.80;;;;;;;;;;4391334;32;20100;-72
2021/08/08 10:52:16;;;;;;;5.90;2.75;;;;;;;;;;4391069;32;20097;-72
2021/08/08 10:54:43;;;;;;;6.70;4.12;;;;;;;;;;4392624;32;20140;-72
2021/08/08 10:57:13;;;;;;;7.37;4.35;;;;;;;;;;4378632;32;20551;-72
2021/08/08 10:59:59;;;;;;;6.03;3.33;;;;;;;;;;4391308;32;20113;-72
2021/08/08 11:02:28;;;;;;;4.60;3.10;;;;;;;;;;4392415;32;20527;-72
2021/08/08 11:04:55;;;;;;;4.12;3.05;;;;;;;;;;4390929;32;20101;-71
2021/08/08 11:07:28;;;;;;;5.60;3.53;;;;;;;;;;4392545;32;20105;-72
2021/08/08 11:09:55;;;;;;;4.32;2.65;;;;;;;;;;4392355;32;20105;-74
2021/08/08 11:12:35;;;;;;;9.68;3.05;;;;;;;;;;4392332;32;20096;-74
2021/08/08 11:15:01;;;;;;;4.97;3.55;;;;;;;;;;4390999;32;20119;-74
2021/08/08 11:17:27;;;;;;;5.82;3.47;;;;;;;;;;4390518;32;20135;-73
2021/08/08 11:19:54;;;;;;;4.87;3.10;;;;;;;;;;4390932;32;20209;-74
2021/08/08 11:22:21;;;;;;;7.12;3.35;;;;;;;;;;4392381;32;20278;-74
2021/08/08 11:24:57;;;;;;;7.55;3.40;;;;;;;;;;4391107;32;20196;-73
2021/08/08 11:27:33;;;;;;;8.00;4.03;;;;;;;;;;4390681;32;20090;-73
2021/08/08 11:30:00;;;;;;;12.10;3.72;;;;;;;;;;4392118;32;20125;-74
2021/08/08 11:32:27;;;;;;;4.12;2.37;;;;;;;;;;4378219;32;20116;-74
2021/08/08 11:35:27;;;;;;;7.45;3.15;;;;;;;;;;4392203;32;20585;-74
2021/08/08 11:37:53;;;;;;;2.97;2.45;;;;;;;;;;4384792;32;20113;-74
2021/08/08 11:40:27;;;;;;;4.50;2.87;;;;;;;;;;4390703;32;20484;-69
2021/08/08 11:42:57;;;;;;;3.33;2.60;;;;;;;;;;4392002;32;20187;-74
2021/08/08 11:45:36;;;;;;;6.22;3.60;;;;;;;;;;4391892;32;20206;-69
2021/08/08 11:48:02;;;;;;;4.25;2.80;;;;;;;;;;4391685;32;20117;-72
2021/08/08 11:50:28;;;;;;;4.93;2.85;;;;;;;;;;4391994;32;20124;-75
2021/08/08 11:52:56;;;;;;;4.45;2.60;;;;;;;;;;4378383;32;20433;-73
2021/08/08 11:55:22;;;;;;;3.87;2.87;;;;;;;;;;4392295;32;20106;-72
2021/08/08 11:57:48;;;;;;;4.62;2.72;;;;;;;;;;4392196;32;20553;-73
2021/08/08 12:00:14;;;;;;;2.95;2.17;;;;;;;;;;4390449;32;20440;-73
2021/08/08 12:02:40;;;;;;;2.90;2.40;;;;;;;;;;4390403;32;20124;-71
2021/08/08 12:05:07;;;;;;;3.35;2.72;;;;;;;;;;4393006;32;20497;-70
2021/08/08 12:07:33;;;;;;;4.57;2.40;;;;;;;;;;4392691;32;20128;-69
2021/08/08 12:09:59;;;;;;;2.60;2.37;;;;;;;;;;4392688;32;20122;-73
2021/08/08 12:12:35;;;;;;;2.75;2.33;;;;;;;;;;4394178;32;20577;-72
2021/08/08 12:15:01;;;;;;;4.60;2.55;;;;;;;;;;4394398;32;20116;-70
2021/08/08 12:17:27;;;;;;;7.65;2.65;;;;;;;;;;4392464;32;20136;-70
2021/08/08 12:22:46;;;;;;;4.93;2.70;;;;;;;;;;4326586;27;20122;-68
2021/08/08 12:25:17;;;;;;;4.47;2.72;;;;;;;;;;4317638;33;20198;-68
2021/08/08 12:27:44;;;;;;;5.95;2.70;;;;;;;;;;4303213;33;20518;-68
2021/08/08 12:30:12;;;;;;;5.93;3.00;;;;;;;;;;4296200;33;20453;-67
2021/08/08 12:32:39;;;;;;;3.97;2.83;;;;;;;;;;4306051;33;20114;-69
2021/08/08 12:35:11;;;;;;;3.15;2.47;;;;;;;;;;4319475;33;20134;-69
2021/08/08 12:37:38;;;;;;;3.80;3.10;;;;;;;;;;4319490;33;20442;-70
2021/08/08 12:40:11;;;;;;;8.07;2.85;;;;;;;;;;4306493;33;20122;-71
2021/08/08 12:42:37;;;;;;;4.35;3.00;;;;;;;;;;4291340;33;20161;-72
2021/08/08 12:45:08;;;;;;;3.97;2.60;;;;;;;;;;4291430;33;20482;-71
2021/08/08 12:47:35;;;;;;;4.20;2.33;;;;;;;;;;4304733;33;20135;-72
2021/08/08 12:50:21;;;;;;;4.47;2.65;;;;;;;;;;4291266;33;20507;-70
2021/08/08 12:52:49;;;;;;;9.07;2.70;;;;;;;;;;4304916;33;20118;-72
2021/08/08 12:55:15;;;;;;;5.45;2.95;;;;;;;;;;4292909;33;20514;-71
2021/08/08 12:57:41;;;;;;;7.50;2.33;;;;;;;;;;4305807;33;20102;-72
2021/08/08 13:00:08;;;;;;;3.70;2.70;;;;;;;;;;4305777;33;20115;-72
2021/08/08 13:02:34;;;;;;;3.75;2.58;;;;;;;;;;4319132;33;20117;-72
2021/08/08 13:05:00;;;;;;;4.95;2.65;;;;;;;;;;4305910;33;20142;-72
2021/08/08 13:07:26;;;;;;;3.28;2.40;;;;;;;;;;4313524;33;20218;-71
2021/08/08 13:09:52;;;;;;;3.87;2.60;;;;;;;;;;4310850;33;20183;-72
2021/08/08 13:12:18;;;;;;;3.17;2.70;;;;;;;;;;4304431;33;20114;-71
2021/08/08 13:14:44;;;;;;;4.97;2.12;;;;;;;;;;4317210;33;20115;-69
2021/08/08 13:17:19;;;;;;;7.35;2.80;;;;;;;;;;4317111;33;20201;-69
2021/08/08 13:19:45;;;;;;;4.15;2.80;;;;;;;;;;4304222;33;20114;-67
2021/08/08 13:22:11;;;;;;;4.18;2.60;;;;;;;;;;4305217;33;20158;-68
2021/08/08 13:24:37;;;;;;;4.50;2.40;;;;;;;;;;4318747;33;20522;-70
2021/08/08 13:27:03;;;;;;;5.28;2.53;;;;;;;;;;4305563;33;20123;-69
2021/08/08 13:29:29;;;;;;;7.53;2.67;;;;;;;;;;4319118;33;20133;-70
2021/08/08 13:31:55;;;;;;;2.92;2.58;;;;;;;;;;4318371;33;20625;-69
2021/08/08 13:34:21;;;;;;;3.72;2.72;;;;;;;;;;4318976;33;20478;-69
2021/08/08 13:36:47;;;;;;;4.65;2.53;;;;;;;;;;4304479;33;20194;-70
2021/08/08 13:39:14;;;;;;;9.93;3.15;;;;;;;;;;4305353;33;20176;-70
2021/08/08 13:41:41;;;;;;;8.25;2.50;;;;;;;;;;4305618;33;20185;-70
2021/08/08 13:44:07;;;;;;;4.57;2.42;;;;;;;;;;4305979;33;20119;-71
2021/08/08 13:46:33;;;;;;;5.35;2.50;;;;;;;;;;4319260;33;20197;-71
2021/08/08 13:48:59;;;;;;;4.10;2.28;;;;;;;;;;4319361;33;20170;-70
2021/08/08 13:51:25;;;;;;;4.43;2.87;;;;;;;;;;4318779;33;20126;-70
2021/08/08 13:53:54;;;;;;;5.78;2.62;;;;;;;;;;4318926;33;20122;-70
2021/08/08 13:56:20;;;;;;;4.43;2.62;;;;;;;;;;4318623;33;20118;-69
2021/08/08 13:58:46;;;;;;;3.20;2.58;;;;;;;;;;4318904;33;20193;-68
2021/08/08 14:01:12;;;;;;;4.47;3.03;;;;;;;;;;4318619;33;20526;-67
2021/08/08 14:03:38;;;;;;;4.35;2.85;;;;;;;;;;4318943;33;20202;-68
2021/08/08 14:06:04;;;;;;;8.68;2.97;;;;;;;;;;4318566;33;20127;-68
2021/08/08 14:08:30;;;;;;;7.60;3.15;;;;;;;;;;4318639;33;20157;-68
2021/08/08 14:10:56;;;;;;;7.22;3.03;;;;;;;;;;4318638;33;20115;-67
2021/08/08 14:13:25;;;;;;;11.25;3.85;;;;;;;;;;4318702;33;20193;-68
2021/08/08 14:15:52;;;;;;;10.48;3.95;;;;;;;;;;4305141;33;20122;-68
2021/08/08 14:18:18;;;;;;;8.48;3.55;;;;;;;;;;4304943;33;20213;-68
2021/08/08 14:20:44;;;;;;;4.53;3.30;;;;;;;;;;4318285;33;20457;-67
2021/08/08 14:23:10;;;;;;;4.78;3.08;;;;;;;;;;4317298;33;20092;-67
2021/08/08 14:25:36;;;;;;;5.22;3.15;;;;;;;;;;4317835;33;20095;-67
2021/08/08 14:28:02;;;;;;;5.43;3.22;;;;;;;;;;4318282;33;20131;-67
2021/08/08 14:30:29;;;;;;;5.22;3.03;;;;;;;;;;4318576;33;20095;-67
2021/08/08 14:32:55;;;;;;;5.35;3.25;;;;;;;;;;4305148;33;20099;-66
2021/08/08 14:35:21;;;;;;;3.62;3.17;;;;;;;;;;4318317;33;20101;-66
2021/08/08 14:37:47;;;;;;;3.55;3.20;;;;;;;;;;4318350;33;20130;-67
2021/08/08 14:40:13;;;;;;;4.62;3.12;;;;;;;;;;4318461;33;20110;-67
2021/08/08 14:42:39;;;;;;;5.00;3.50;;;;;;;;;;4318433;33;20133;-67
2021/08/08 14:45:09;;;;;;;4.95;2.75;;;;;;;;;;4318380;33;20135;-67
2021/08/08 14:47:35;;;;;;;3.95;3.20;;;;;;;;;;4292991;33;20103;-67
2021/08/08 14:50:06;;;;;;;6.70;4.53;;;;;;;;;;4318330;33;20494;-66
2021/08/08 14:52:33;;;;;;;10.70;4.35;;;;;;;;;;4318344;33;20106;-67
2021/08/08 14:54:59;;;;;;;4.95;3.55;;;;;;;;;;4318282;33;20511;-66
2021/08/08 14:57:25;;;;;;;12.02;3.97;;;;;;;;;;4318072;33;20138;-66
2021/08/08 14:59:51;;;;;;;6.25;4.15;;;;;;;;;;4318505;33;20630;-66
2021/08/08 15:02:17;;;;;;;12.43;4.43;;;;;;;;;;4318117;33;20545;-66